sensor_id;sensor_type;location;lat;lon;timestamp;pressure;altitude;pressure_sealevel;temperature;humidity
68456;BME280;55437;55.046;38.838;2023-01-29T00:02:18;100278.06;;;1.81;62.75
68456;BME280;55437;55.046;38.838;2023-01-29T00:04:44;100274.53;;;1.70;62.81
68456;BME280;55437;55.046;38.838;2023-01-29T00:07:09;100277.84;;;1.63;63.13
68456;BME280;55437;55.046;38.838;2023-01-29T00:09:36;100273.56;;;1.57;63.12
68456;BME280;55437;55.046;38.838;2023-01-29T00:12:02;100269.44;;;1.64;62.99
68456;BME280;55437;55.046;38.838;2023-01-29T00:14:27;100269.47;;;1.67;63.05
68456;BME280;55437;55.046;38.838;2023-01-29T00:16:53;100260.03;;;1.52;62.75
68456;BME280;55437;55.046;38.838;2023-01-29T00:19:19;100258.97;;;1.35;63.36
68456;BME280;55437;55.046;38.838;2023-01-29T00:21:45;100252.97;;;1.27;63.74
68456;BME280;55437;55.046;38.838;2023-01-29T00:24:11;100248.72;;;1.24;63.88
68456;BME280;55437;55.046;38.838;2023-01-29T00:26:36;100242.81;;;1.24;63.80
68456;BME280;55437;55.046;38.838;2023-01-29T00:29:04;100236.88;;;1.22;63.83
68456;BME280;55437;55.046;38.838;2023-01-29T00:31:30;100247.03;;;1.23;63.45
68456;BME280;55437;55.046;38.838;2023-01-29T00:33:56;100252.03;;;1.17;63.67
68456;BME280;55437;55.046;38.838;2023-01-29T00:36:23;100246.88;;;1.11;63.67
68456;BME280;55437;55.046;38.838;2023-01-29T00:38:58;100250.38;;;1.22;63.25
68456;BME280;55437;55.046;38.838;2023-01-29T00:41:29;100246.31;;;1.35;63.01
68456;BME280;55437;55.046;38.838;2023-01-29T00:44:14;100262.47;;;1.43;62.52
68456;BME280;55437;55.046;38.838;2023-01-29T00:46:58;100252.31;;;1.41;62.54
68456;BME280;55437;55.046;38.838;2023-01-29T00:49:24;100253.19;;;1.43;62.39
68456;BME280;55437;55.046;38.838;2023-01-29T00:51:51;100250.56;;;1.37;62.25
68456;BME280;55437;55.046;38.838;2023-01-29T00:54:42;100245.31;;;1.22;62.60
68456;BME280;55437;55.046;38.838;2023-01-29T00:57:08;100229.31;;;1.20;62.31
68456;BME280;55437;55.046;38.838;2023-01-29T00:59:34;100232.69;;;1.24;62.29
68456;BME280;55437;55.046;38.838;2023-01-29T01:01:59;100225.13;;;1.25;62.27
68456;BME280;55437;55.046;38.838;2023-01-29T01:04:43;100240.31;;;1.25;62.26
68456;BME280;55437;55.046;38.838;2023-01-29T01:07:09;100242.06;;;1.31;62.30
68456;BME280;55437;55.046;38.838;2023-01-29T01:09:36;100238.69;;;1.30;61.96
68456;BME280;55437;55.046;38.838;2023-01-29T01:12:21;100228.44;;;1.18;62.16
68456;BME280;55437;55.046;38.838;2023-01-29T01:14:47;100225.88;;;1.17;62.02
68456;BME280;55437;55.046;38.838;2023-01-29T01:17:13;100227.53;;;1.15;61.54
68456;BME280;55437;55.046;38.838;2023-01-29T01:19:40;100228.38;;;1.15;61.71
68456;BME280;55437;55.046;38.838;2023-01-29T01:22:05;100225.72;;;1.03;61.49
68456;BME280;55437;55.046;38.838;2023-01-29T01:24:31;100222.25;;;0.98;61.67
68456;BME280;55437;55.046;38.838;2023-01-29T01:26:57;100225.75;;;1.09;61.48
68456;BME280;55437;55.046;38.838;2023-01-29T01:29:23;100224.09;;;1.08;61.22
68456;BME280;55437;55.046;38.838;2023-01-29T01:31:49;100224.84;;;1.02;61.22
68456;BME280;55437;55.046;38.838;2023-01-29T01:34:14;100218.19;;;1.11;61.31
68456;BME280;55437;55.046;38.838;2023-01-29T01:36:40;100213.19;;;1.14;60.98
68456;BME280;55437;55.046;38.838;2023-01-29T01:39:06;100215.81;;;1.23;60.88
68456;BME280;55437;55.046;38.838;2023-01-29T01:41:32;100209.09;;;1.25;60.89
68456;BME280;55437;55.046;38.838;2023-01-29T01:44:00;100202.31;;;1.22;60.69
68456;BME280;55437;55.046;38.838;2023-01-29T01:46:36;100196.38;;;1.17;60.85
68456;BME280;55437;55.046;38.838;2023-01-29T01:49:09;100192.13;;;1.15;60.74
68456;BME280;55437;55.046;38.838;2023-01-29T01:51:39;100185.44;;;1.21;60.51
68456;BME280;55437;55.046;38.838;2023-01-29T01:54:25;100190.53;;;1.23;60.57
68456;BME280;55437;55.046;38.838;2023-01-29T01:57:14;100185.56;;;1.30;60.21
68456;BME280;55437;55.046;38.838;2023-01-29T01:59:51;100194.00;;;1.29;60.35
68456;BME280;55437;55.046;38.838;2023-01-29T02:02:18;100188.78;;;1.17;60.39
68456;BME280;55437;55.046;38.838;2023-01-29T02:05:03;100191.25;;;1.13;60.60
68456;BME280;55437;55.046;38.838;2023-01-29T02:07:49;100187.84;;;1.09;60.51
68456;BME280;55437;55.046;38.838;2023-01-29T02:10:38;100186.13;;;1.05;60.57
68456;BME280;55437;55.046;38.838;2023-01-29T02:13:06;100181.72;;;0.90;60.97
68456;BME280;55437;55.046;38.838;2023-01-29T02:15:32;100179.16;;;0.89;60.91
68456;BME280;55437;55.046;38.838;2023-01-29T02:17:58;100184.28;;;0.93;60.83
68456;BME280;55437;55.046;38.838;2023-01-29T02:20:27;100175.88;;;0.94;60.73
68456;BME280;55437;55.046;38.838;2023-01-29T02:28:46;100165.47;;;0.73;60.82
68456;BME280;55437;55.046;38.838;2023-01-29T02:34:46;100159.50;;;0.66;61.16
68456;BME280;55437;55.046;38.838;2023-01-29T02:43:26;100146.06;;;0.67;61.31
68456;BME280;55437;55.046;38.838;2023-01-29T02:46:22;100141.88;;;0.72;61.13
68456;BME280;55437;55.046;38.838;2023-01-29T02:51:25;100157.22;;;0.85;61.10
68456;BME280;55437;55.046;38.838;2023-01-29T02:56:40;100150.59;;;0.94;60.91
68456;BME280;55437;55.046;38.838;2023-01-29T02:59:16;100151.47;;;0.98;60.74
68456;BME280;55437;55.046;38.838;2023-01-29T03:02:09;100144.72;;;0.97;60.76
68456;BME280;55437;55.046;38.838;2023-01-29T03:04:42;100142.28;;;1.04;60.73
68456;BME280;55437;55.046;38.838;2023-01-29T03:07:23;100140.66;;;1.11;60.54
68456;BME280;55437;55.046;38.838;2023-01-29T03:10:39;100138.25;;;1.19;60.56
68456;BME280;55437;55.046;38.838;2023-01-29T03:16:30;100124.03;;;1.31;59.80
68456;BME280;55437;55.046;38.838;2023-01-29T03:19:06;100132.50;;;1.36;59.82
68456;BME280;55437;55.046;38.838;2023-01-29T03:21:39;100128.31;;;1.40;59.71
68456;BME280;55437;55.046;38.838;2023-01-29T03:27:38;100119.78;;;1.29;60.14
68456;BME280;55437;55.046;38.838;2023-01-29T03:30:30;100118.06;;;1.25;60.15
68456;BME280;55437;55.046;38.838;2023-01-29T03:33:30;100109.66;;;1.29;60.39
68456;BME280;55437;55.046;38.838;2023-01-29T03:36:02;100107.97;;;1.26;60.03
68456;BME280;55437;55.046;38.838;2023-01-29T03:38:31;100107.94;;;1.25;60.25
68456;BME280;55437;55.046;38.838;2023-01-29T03:44:29;100110.53;;;1.31;60.30
68456;BME280;55437;55.046;38.838;2023-01-29T03:52:05;100098.69;;;1.28;60.02
68456;BME280;55437;55.046;38.838;2023-01-29T03:59:49;100091.97;;;1.29;59.90
68456;BME280;55437;55.046;38.838;2023-01-29T04:02:42;100094.53;;;1.33;59.79
68456;BME280;55437;55.046;38.838;2023-01-29T04:05:16;100089.47;;;1.33;60.06
68456;BME280;55437;55.046;38.838;2023-01-29T04:08:19;100092.91;;;1.38;59.66
68456;BME280;55437;55.046;38.838;2023-01-29T04:10:48;100087.84;;;1.38;59.56
68456;BME280;55437;55.046;38.838;2023-01-29T04:13:16;100086.97;;;1.38;59.85
68456;BME280;55437;55.046;38.838;2023-01-29T04:15:51;100078.59;;;1.40;59.59
68456;BME280;55437;55.046;38.838;2023-01-29T04:18:27;100071.81;;;1.39;59.55
68456;BME280;55437;55.046;38.838;2023-01-29T04:21:04;100070.94;;;1.36;59.22
68456;BME280;55437;55.046;38.838;2023-01-29T04:23:32;100074.31;;;1.36;59.11
68456;BME280;55437;55.046;38.838;2023-01-29T04:28:53;100063.38;;;1.37;58.98
68456;BME280;55437;55.046;38.838;2023-01-29T04:31:27;100059.94;;;1.31;59.00
68456;BME280;55437;55.046;38.838;2023-01-29T04:34:32;100063.25;;;1.25;59.33
68456;BME280;55437;55.046;38.838;2023-01-29T04:37:03;100062.38;;;1.20;59.13
68456;BME280;55437;55.046;38.838;2023-01-29T04:39:46;100060.72;;;1.24;59.07
68456;BME280;55437;55.046;38.838;2023-01-29T04:42:30;100058.19;;;1.24;58.79
68456;BME280;55437;55.046;38.838;2023-01-29T04:47:46;100066.47;;;1.07;58.69
68456;BME280;55437;55.046;38.838;2023-01-29T04:50:25;100064.81;;;1.11;58.76
68456;BME280;55437;55.046;38.838;2023-01-29T04:52:59;100063.16;;;1.15;58.75
68456;BME280;55437;55.046;38.838;2023-01-29T04:58:15;100066.56;;;1.18;58.46
68456;BME280;55437;55.046;38.838;2023-01-29T05:00:44;100063.97;;;1.11;58.46
68456;BME280;55437;55.046;38.838;2023-01-29T05:03:14;100066.47;;;1.06;58.73
68456;BME280;55437;55.046;38.838;2023-01-29T05:05:43;100069.78;;;1.02;58.40
68456;BME280;55437;55.046;38.838;2023-01-29T05:08:14;100059.63;;;0.99;58.66
68456;BME280;55437;55.046;38.838;2023-01-29T05:10:42;100053.69;;;0.97;58.39
68456;BME280;55437;55.046;38.838;2023-01-29T05:13:11;100050.38;;;1.01;58.21
68456;BME280;55437;55.046;38.838;2023-01-29T05:15:49;100051.16;;;0.97;58.02
68456;BME280;55437;55.046;38.838;2023-01-29T05:18:17;100043.59;;;0.97;58.24
68456;BME280;55437;55.046;38.838;2023-01-29T05:20:43;100045.22;;;0.90;58.24
68456;BME280;55437;55.046;38.838;2023-01-29T05:23:16;100039.31;;;0.88;58.23
68456;BME280;55437;55.046;38.838;2023-01-29T05:25:43;100034.25;;;0.88;57.92
68456;BME280;55437;55.046;38.838;2023-01-29T05:28:10;100034.19;;;0.81;57.97
68456;BME280;55437;55.046;38.838;2023-01-29T05:30:42;100039.06;;;0.65;58.32
68456;BME280;55437;55.046;38.838;2023-01-29T05:33:27;100043.22;;;0.59;58.32
68456;BME280;55437;55.046;38.838;2023-01-29T05:35:55;100042.44;;;0.66;58.31
68456;BME280;55437;55.046;38.838;2023-01-29T05:38:21;100043.31;;;0.68;58.34
68456;BME280;55437;55.046;38.838;2023-01-29T05:40:47;100041.66;;;0.70;58.12
68456;BME280;55437;55.046;38.838;2023-01-29T05:43:15;100038.22;;;0.65;58.42
68456;BME280;55437;55.046;38.838;2023-01-29T05:45:42;100040.81;;;0.74;58.11
68456;BME280;55437;55.046;38.838;2023-01-29T05:48:08;100039.31;;;0.90;58.12
68456;BME280;55437;55.046;38.838;2023-01-29T05:50:33;100030.06;;;0.90;58.03
68456;BME280;55437;55.046;38.838;2023-01-29T05:53:00;100036.78;;;0.90;57.56
68456;BME280;55437;55.046;38.838;2023-01-29T05:55:27;100027.59;;;0.95;57.34
68456;BME280;55437;55.046;38.838;2023-01-29T05:57:56;100033.56;;;1.03;57.15
68456;BME280;55437;55.046;38.838;2023-01-29T06:00:22;100022.56;;;1.01;56.86
68456;BME280;55437;55.046;38.838;2023-01-29T06:02:48;100016.72;;;1.05;56.93
68456;BME280;55437;55.046;38.838;2023-01-29T06:05:14;100023.50;;;1.07;56.73
68456;BME280;55437;55.046;38.838;2023-01-29T06:07:39;100023.50;;;1.07;56.62
68456;BME280;55437;55.046;38.838;2023-01-29T06:10:15;100020.06;;;1.02;56.59
68456;BME280;55437;55.046;38.838;2023-01-29T06:12:42;100020.91;;;1.01;56.53
68456;BME280;55437;55.046;38.838;2023-01-29T06:15:09;100016.69;;;1.02;56.48
68456;BME280;55437;55.046;38.838;2023-01-29T06:17:35;100023.47;;;1.04;56.14
68456;BME280;55437;55.046;38.838;2023-01-29T06:20:02;100020.13;;;1.08;55.98
68456;BME280;55437;55.046;38.838;2023-01-29T06:22:28;100032.78;;;1.08;56.23
68456;BME280;55437;55.046;38.838;2023-01-29T06:24:54;100022.53;;;0.98;56.12
68456;BME280;55437;55.046;38.838;2023-01-29T06:27:20;100020.00;;;0.95;56.24
68456;BME280;55437;55.046;38.838;2023-01-29T06:29:45;100016.66;;;0.99;55.72
68456;BME280;55437;55.046;38.838;2023-01-29T06:32:11;100020.03;;;0.99;56.10
68456;BME280;55437;55.046;38.838;2023-01-29T06:34:37;100017.47;;;0.98;55.73
68456;BME280;55437;55.046;38.838;2023-01-29T06:37:02;100011.59;;;1.00;55.77
68456;BME280;55437;55.046;38.838;2023-01-29T06:39:28;100003.22;;;1.03;55.61
68456;BME280;55437;55.046;38.838;2023-01-29T06:41:55;100005.66;;;0.97;55.21
68456;BME280;55437;55.046;38.838;2023-01-29T06:44:20;100004.81;;;0.93;55.29
68456;BME280;55437;55.046;38.838;2023-01-29T06:46:46;100018.31;;;0.95;55.12
68456;BME280;55437;55.046;38.838;2023-01-29T06:49:12;100015.00;;;1.02;55.34
68456;BME280;55437;55.046;38.838;2023-01-29T06:51:38;100006.59;;;1.05;55.18
68456;BME280;55437;55.046;38.838;2023-01-29T06:54:03;100009.09;;;1.00;55.15
68456;BME280;55437;55.046;38.838;2023-01-29T06:56:30;100012.53;;;1.10;55.15
68456;BME280;55437;55.046;38.838;2023-01-29T06:58:56;100012.53;;;1.07;54.89
68456;BME280;55437;55.046;38.838;2023-01-29T07:01:22;100007.47;;;1.10;54.63
68456;BME280;55437;55.046;38.838;2023-01-29T07:03:48;100007.56;;;1.18;54.73
68456;BME280;55437;55.046;38.838;2023-01-29T07:06:16;100004.16;;;1.14;54.67
68456;BME280;55437;55.046;38.838;2023-01-29T07:08:43;100008.34;;;1.12;54.57
68456;BME280;55437;55.046;38.838;2023-01-29T07:11:10;100003.25;;;1.06;54.64
68456;BME280;55437;55.046;38.838;2023-01-29T07:13:35;99999.91;;;1.08;54.50
68456;BME280;55437;55.046;38.838;2023-01-29T07:16:04;100004.13;;;1.08;54.84
68456;BME280;55437;55.046;38.838;2023-01-29T07:18:31;100005.75;;;1.03;54.70
68456;BME280;55437;55.046;38.838;2023-01-29T07:20:57;100013.25;;;0.95;54.54
68456;BME280;55437;55.046;38.838;2023-01-29T07:23:23;100008.13;;;0.88;54.67
68456;BME280;55437;55.046;38.838;2023-01-29T07:25:49;100013.22;;;0.92;54.66
68456;BME280;55437;55.046;38.838;2023-01-29T07:28:16;100007.38;;;0.96;54.58
68456;BME280;55437;55.046;38.838;2023-01-29T07:30:42;100003.25;;;1.06;54.45
68456;BME280;55437;55.046;38.838;2023-01-29T07:33:09;100005.84;;;1.15;54.20
68456;BME280;55437;55.046;38.838;2023-01-29T07:35:39;100009.22;;;1.14;54.01
68456;BME280;55437;55.046;38.838;2023-01-29T07:38:07;100006.66;;;1.13;54.31
68456;BME280;55437;55.046;38.838;2023-01-29T07:40:33;100015.09;;;1.13;54.09
68456;BME280;55437;55.046;38.838;2023-01-29T07:43:00;100013.41;;;1.12;54.22
68456;BME280;55437;55.046;38.838;2023-01-29T07:45:28;100005.91;;;1.24;53.88
68456;BME280;55437;55.046;38.838;2023-01-29T07:47:55;100001.72;;;1.26;54.03
68456;BME280;55437;55.046;38.838;2023-01-29T07:50:22;100005.16;;;1.31;53.83
68456;BME280;55437;55.046;38.838;2023-01-29T07:52:48;100005.94;;;1.26;53.98
68456;BME280;55437;55.046;38.838;2023-01-29T07:55:15;100000.84;;;1.23;54.17
68456;BME280;55437;55.046;38.838;2023-01-29T07:57:40;99998.34;;;1.26;54.06
68456;BME280;55437;55.046;38.838;2023-01-29T08:00:07;100000.09;;;1.34;53.66
68456;BME280;55437;55.046;38.838;2023-01-29T08:02:38;100000.16;;;1.45;53.39
68456;BME280;55437;55.046;38.838;2023-01-29T08:05:04;99994.38;;;1.55;53.12
68456;BME280;55437;55.046;38.838;2023-01-29T08:07:30;99992.72;;;1.62;52.65
68456;BME280;55437;55.046;38.838;2023-01-29T08:09:56;99991.88;;;1.63;52.72
68456;BME280;55437;55.046;38.838;2023-01-29T08:12:22;99984.22;;;1.54;53.13
68456;BME280;55437;55.046;38.838;2023-01-29T08:14:47;99980.91;;;1.64;53.21
68456;BME280;55437;55.046;38.838;2023-01-29T08:17:13;99977.59;;;1.74;52.81
68456;BME280;55437;55.046;38.838;2023-01-29T08:19:39;99973.41;;;1.77;52.92
68456;BME280;55437;55.046;38.838;2023-01-29T08:22:05;99973.28;;;1.59;52.88
68456;BME280;55437;55.046;38.838;2023-01-29T08:24:31;99974.09;;;1.51;52.76
68456;BME280;55437;55.046;38.838;2023-01-29T08:26:57;99961.47;;;1.57;52.61
68456;BME280;55437;55.046;38.838;2023-01-29T08:29:23;99958.94;;;1.57;52.62
68456;BME280;55437;55.046;38.838;2023-01-29T08:31:48;99957.28;;;1.60;52.52
68456;BME280;55437;55.046;38.838;2023-01-29T08:34:39;99953.03;;;1.55;52.73
68456;BME280;55437;55.046;38.838;2023-01-29T08:37:04;99946.31;;;1.60;52.59
68456;BME280;55437;55.046;38.838;2023-01-29T08:39:33;99954.81;;;1.68;52.50
68456;BME280;55437;55.046;38.838;2023-01-29T08:41:59;99951.44;;;1.69;52.81
68456;BME280;55437;55.046;38.838;2023-01-29T08:44:25;99940.44;;;1.67;52.77
68456;BME280;55437;55.046;38.838;2023-01-29T08:46:51;99944.66;;;1.65;52.51
68456;BME280;55437;55.046;38.838;2023-01-29T08:49:20;99942.09;;;1.63;52.50
68456;BME280;55437;55.046;38.838;2023-01-29T08:51:46;99939.56;;;1.62;52.56
68456;BME280;55437;55.046;38.838;2023-01-29T08:54:12;99947.97;;;1.59;52.58
68456;BME280;55437;55.046;38.838;2023-01-29T08:56:37;99935.25;;;1.47;52.54
68456;BME280;55437;55.046;38.838;2023-01-29T08:59:09;99938.56;;;1.37;52.98
68456;BME280;55437;55.046;38.838;2023-01-29T09:01:35;99929.19;;;1.21;53.03
68456;BME280;55437;55.046;38.838;2023-01-29T09:04:02;99919.09;;;1.24;53.39
68456;BME280;55437;55.046;38.838;2023-01-29T09:06:27;99921.69;;;1.31;53.21
68456;BME280;55437;55.046;38.838;2023-01-29T09:08:53;99912.41;;;1.33;53.04
68456;BME280;55437;55.046;38.838;2023-01-29T09:11:19;99915.78;;;1.32;52.83
68456;BME280;55437;55.046;38.838;2023-01-29T09:13:45;99904.88;;;1.39;53.00
68456;BME280;55437;55.046;38.838;2023-01-29T09:16:13;99904.94;;;1.52;52.57
68456;BME280;55437;55.046;38.838;2023-01-29T09:18:39;99915.09;;;1.61;52.32
68456;BME280;55437;55.046;38.838;2023-01-29T09:21:04;99911.69;;;1.59;52.36
68456;BME280;55437;55.046;38.838;2023-01-29T09:23:31;99904.91;;;1.49;52.61
68456;BME280;55437;55.046;38.838;2023-01-29T09:25:57;99895.63;;;1.43;52.54
68456;BME280;55437;55.046;38.838;2023-01-29T09:28:22;99894.78;;;1.44;52.69
68456;BME280;55437;55.046;38.838;2023-01-29T09:30:48;99893.88;;;1.37;52.74
68456;BME280;55437;55.046;38.838;2023-01-29T09:33:14;99891.38;;;1.40;52.57
68456;BME280;55437;55.046;38.838;2023-01-29T09:35:41;99889.63;;;1.33;52.96
68456;BME280;55437;55.046;38.838;2023-01-29T09:38:10;99885.50;;;1.46;52.80
68456;BME280;55437;55.046;38.838;2023-01-29T09:46:21;99871.22;;;1.57;52.67
68456;BME280;55437;55.046;38.838;2023-01-29T09:49:06;99862.81;;;1.63;52.80
68456;BME280;55437;55.046;38.838;2023-01-29T09:51:40;99861.91;;;1.50;52.93
68456;BME280;55437;55.046;38.838;2023-01-29T09:54:45;99858.50;;;1.42;53.25
68456;BME280;55437;55.046;38.838;2023-01-29T09:57:21;99860.13;;;1.31;53.38
68456;BME280;55437;55.046;38.838;2023-01-29T09:59:49;99870.25;;;1.35;53.47
68456;BME280;55437;55.046;38.838;2023-01-29T10:08:19;99850.81;;;1.25;53.69
68456;BME280;55437;55.046;38.838;2023-01-29T10:16:43;99835.63;;;1.19;54.06
68456;BME280;55437;55.046;38.838;2023-01-29T10:24:57;99830.50;;;1.13;54.08
68456;BME280;55437;55.046;38.838;2023-01-29T10:27:31;99838.13;;;1.16;54.21
68456;BME280;55437;55.046;38.838;2023-01-29T10:29:59;99832.13;;;1.02;54.44
68456;BME280;55437;55.046;38.838;2023-01-29T10:32:28;99826.22;;;0.95;54.72
68456;BME280;55437;55.046;38.838;2023-01-29T10:35:12;99828.69;;;0.91;54.74
68456;BME280;55437;55.046;38.838;2023-01-29T10:37:46;99831.31;;;1.03;54.82
68456;BME280;55437;55.046;38.838;2023-01-29T11:02:24;99809.53;;;1.35;54.44
68456;BME280;55437;55.046;38.838;2023-01-29T11:04:53;99807.06;;;1.41;54.43
68456;BME280;55437;55.046;38.838;2023-01-29T11:07:21;99802.03;;;1.44;54.14
68456;BME280;55437;55.046;38.838;2023-01-29T11:09:51;99804.50;;;1.35;54.49
68456;BME280;55437;55.046;38.838;2023-01-29T11:12:27;99800.25;;;1.30;54.52
68456;BME280;55437;55.046;38.838;2023-01-29T11:18:06;99795.13;;;1.13;55.13
68456;BME280;55437;55.046;38.838;2023-01-29T11:20:35;99794.28;;;1.14;55.03
68456;BME280;55437;55.046;38.838;2023-01-29T11:23:01;99789.25;;;1.22;54.96
68456;BME280;55437;55.046;38.838;2023-01-29T11:25:27;99787.56;;;1.22;55.03
68456;BME280;55437;55.046;38.838;2023-01-29T11:27:56;99787.59;;;1.27;54.97
68456;BME280;55437;55.046;38.838;2023-01-29T11:33:20;99769.91;;;1.34;54.59
68456;BME280;55437;55.046;38.838;2023-01-29T11:35:50;99767.34;;;1.25;54.65
68456;BME280;55437;55.046;38.838;2023-01-29T11:38:28;99769.00;;;1.14;54.99
68456;BME280;55437;55.046;38.838;2023-01-29T11:41:15;99759.69;;;1.04;55.26
68456;BME280;55437;55.046;38.838;2023-01-29T11:43:43;99757.91;;;0.91;55.46
68456;BME280;55437;55.046;38.838;2023-01-29T11:46:14;99770.63;;;1.03;55.60
68456;BME280;55437;55.046;38.838;2023-01-29T11:48:49;99762.25;;;1.13;55.05
68456;BME280;55437;55.046;38.838;2023-01-29T11:51:28;99757.97;;;1.03;54.97
68456;BME280;55437;55.046;38.838;2023-01-29T11:53:56;99755.44;;;1.01;55.29
68456;BME280;55437;55.046;38.838;2023-01-29T11:56:34;99753.81;;;1.08;55.30
68456;BME280;55437;55.046;38.838;2023-01-29T11:59:04;99742.84;;;1.12;55.34
68456;BME280;55437;55.046;38.838;2023-01-29T12:01:36;99742.06;;;1.21;54.92
68456;BME280;55437;55.046;38.838;2023-01-29T12:04:18;99745.38;;;1.07;55.17
68456;BME280;55437;55.046;38.838;2023-01-29T12:06:47;99733.50;;;0.94;55.43
68456;BME280;55437;55.046;38.838;2023-01-29T12:09:23;99724.19;;;0.89;55.56
68456;BME280;55437;55.046;38.838;2023-01-29T12:11:53;99729.31;;;0.95;55.58
68456;BME280;55437;55.046;38.838;2023-01-29T12:14:31;99713.28;;;0.94;55.32
68456;BME280;55437;55.046;38.838;2023-01-29T12:19:39;99704.88;;;0.95;55.54
68456;BME280;55437;55.046;38.838;2023-01-29T12:22:20;99703.19;;;0.94;55.49
68456;BME280;55437;55.046;38.838;2023-01-29T12:30:21;99701.47;;;0.92;55.61
68456;BME280;55437;55.046;38.838;2023-01-29T12:33:19;99702.25;;;0.77;55.52
68456;BME280;55437;55.046;38.838;2023-01-29T12:36:35;99712.38;;;0.82;55.77
68456;BME280;55437;55.046;38.838;2023-01-29T12:39:00;99714.91;;;0.80;56.20
68456;BME280;55437;55.046;38.838;2023-01-29T12:41:40;99709.84;;;0.80;56.03
68456;BME280;55437;55.046;38.838;2023-01-29T12:44:34;99715.78;;;0.90;56.01
68456;BME280;55437;55.046;38.838;2023-01-29T12:47:54;99715.78;;;0.88;55.65
68456;BME280;55437;55.046;38.838;2023-01-29T12:49:56;99720.81;;;0.85;55.77
68456;BME280;55437;55.046;38.838;2023-01-29T12:52:35;99722.56;;;0.94;55.64
68456;BME280;55437;55.046;38.838;2023-01-29T12:55:35;99717.53;;;1.03;55.57
68456;BME280;55437;55.046;38.838;2023-01-29T12:58:11;99716.69;;;1.01;55.69
68456;BME280;55437;55.046;38.838;2023-01-29T13:00:42;99721.72;;;0.95;55.57
68456;BME280;55437;55.046;38.838;2023-01-29T13:03:38;99717.53;;;1.01;55.90
68456;BME280;55437;55.046;38.838;2023-01-29T13:06:19;99720.09;;;1.12;55.66
68456;BME280;55437;55.046;38.838;2023-01-29T13:08:54;99717.59;;;1.15;55.63
68456;BME280;55437;55.046;38.838;2023-01-29T13:11:34;99714.97;;;1.00;55.61
68456;BME280;55437;55.046;38.838;2023-01-29T13:16:56;99727.66;;;1.11;55.89
68456;BME280;55437;55.046;38.838;2023-01-29T13:19:37;99725.09;;;1.01;55.74
68456;BME280;55437;55.046;38.838;2023-01-29T13:22:09;99728.47;;;0.99;55.85
68456;BME280;55437;55.046;38.838;2023-01-29T13:24:41;99718.38;;;1.05;55.59
68456;BME280;55437;55.046;38.838;2023-01-29T13:27:23;99722.63;;;1.12;55.46
68456;BME280;55437;55.046;38.838;2023-01-29T13:29:49;99715.03;;;1.12;55.41
68456;BME280;55437;55.046;38.838;2023-01-29T13:32:21;99715.88;;;1.14;55.52
68456;BME280;55437;55.046;38.838;2023-01-29T13:34:48;99707.44;;;1.12;55.44
68456;BME280;55437;55.046;38.838;2023-01-29T13:37:35;99707.44;;;1.12;55.45
68456;BME280;55437;55.046;38.838;2023-01-29T13:40:04;99699.84;;;1.11;55.36
68456;BME280;55437;55.046;38.838;2023-01-29T13:42:48;99696.47;;;1.02;55.74
68456;BME280;55437;55.046;38.838;2023-01-29T13:45:35;99690.53;;;0.99;55.64
68456;BME280;55437;55.046;38.838;2023-01-29T13:48:26;99689.66;;;0.88;55.81
68456;BME280;55437;55.046;38.838;2023-01-29T13:50:54;99691.31;;;0.86;56.08
68456;BME280;55437;55.046;38.838;2023-01-29T13:53:24;99689.56;;;0.69;56.33
68456;BME280;55437;55.046;38.838;2023-01-29T13:55:52;99687.84;;;0.64;56.50
68456;BME280;55437;55.046;38.838;2023-01-29T14:01:00;99687.88;;;0.67;56.60
68456;BME280;55437;55.046;38.838;2023-01-29T14:08:40;99687.84;;;0.64;56.93
68456;BME280;55437;55.046;38.838;2023-01-29T14:13:49;99693.75;;;0.64;56.90
68456;BME280;55437;55.046;38.838;2023-01-29T14:19:00;99694.63;;;0.72;56.53
68456;BME280;55437;55.046;38.838;2023-01-29T14:21:29;99682.03;;;0.77;56.44
68456;BME280;55437;55.046;38.838;2023-01-29T14:23:58;99687.97;;;0.82;56.34
68456;BME280;55437;55.046;38.838;2023-01-29T14:31:45;99691.38;;;0.98;56.07
68456;BME280;55437;55.046;38.838;2023-01-29T14:36:44;99687.19;;;1.01;56.08
68456;BME280;55437;55.046;38.838;2023-01-29T14:39:21;99693.06;;;0.94;55.81
68456;BME280;55437;55.046;38.838;2023-01-29T14:41:49;99684.56;;;0.80;56.15
68456;BME280;55437;55.046;38.838;2023-01-29T14:49:55;99687.16;;;0.91;56.19
68456;BME280;55437;55.046;38.838;2023-01-29T14:52:32;99687.16;;;0.91;56.05
68456;BME280;55437;55.046;38.838;2023-01-29T14:55:03;99682.97;;;0.94;56.12
68456;BME280;55437;55.046;38.838;2023-01-29T14:57:31;99677.91;;;0.96;56.24
68456;BME280;55437;55.046;38.838;2023-01-29T15:00:00;99676.22;;;0.98;56.25
68456;BME280;55437;55.046;38.838;2023-01-29T15:02:37;99671.19;;;1.04;56.14
68456;BME280;55437;55.046;38.838;2023-01-29T15:05:10;99671.22;;;1.07;55.98
68456;BME280;55437;55.046;38.838;2023-01-29T15:08:43;99663.59;;;1.04;55.99
68456;BME280;55437;55.046;38.838;2023-01-29T15:10:51;99656.81;;;0.91;56.21
68456;BME280;55437;55.046;38.838;2023-01-29T15:16:50;99651.72;;;0.85;56.75
68456;BME280;55437;55.046;38.838;2023-01-29T15:19:24;99655.13;;;0.90;56.34
68456;BME280;55437;55.046;38.838;2023-01-29T15:24:45;99643.28;;;0.80;56.50
68456;BME280;55437;55.046;38.838;2023-01-29T15:27:20;99637.34;;;0.75;56.68
68456;BME280;55437;55.046;38.838;2023-01-29T15:29:52;99639.94;;;0.81;56.43
68456;BME280;55437;55.046;38.838;2023-01-29T15:32:30;99634.91;;;0.84;56.60
68456;BME280;55437;55.046;38.838;2023-01-29T15:35:00;99636.56;;;0.85;56.41
68456;BME280;55437;55.046;38.838;2023-01-29T15:37:34;99641.59;;;0.79;56.56
68456;BME280;55437;55.046;38.838;2023-01-29T15:40:05;99639.09;;;0.83;56.65
68456;BME280;55437;55.046;38.838;2023-01-29T15:42:44;99639.94;;;0.84;56.71
68456;BME280;55437;55.046;38.838;2023-01-29T15:45:24;99641.59;;;0.79;56.52